sensor_id;sensor_type;location;lat;lon;timestamp;pressure;altitude;pressure_sealevel;temperature;humidity
47670;BME280;33408;52.062;11.722;2023-07-28T00:00:06;99910.69;;;17.97;100.00
47670;BME280;33408;52.062;11.722;2023-07-28T00:02:34;99911.50;;;17.97;100.00
47670;BME280;33408;52.062;11.722;2023-07-28T00:05:00;99922.19;;;17.94;100.00
47670;BME280;33408;52.062;11.722;2023-07-28T00:07:29;99920.22;;;17.98;100.00
47670;BME280;33408;52.062;11.722;2023-07-28T00:09:59;99923.56;;;18.00;100.00
47670;BME280;33408;52.062;11.722;2023-07-28T00:12:25;99913.75;;;18.03;100.00
47670;BME280;33408;52.062;11.722;2023-07-28T00:14:52;99918.03;;;18.04;100.00
47670;BME280;33408;52.062;11.722;2023-07-28T00:17:20;99923.28;;;18.04;100.00
47670;BME280;33408;52.062;11.722;2023-07-28T00:19:46;99916.56;;;18.00;100.00
47670;BME280;33408;52.062;11.722;2023-07-28T00:22:13;99919.09;;;18.02;100.00
47670;BME280;33408;52.062;11.722;2023-07-28T00:24:39;99921.63;;;18.03;100.00
47670;BME280;33408;52.062;11.722;2023-07-28T00:27:06;99917.31;;;18.02;100.00
47670;BME280;33408;52.062;11.722;2023-07-28T00:29:33;99912.16;;;18.01;100.00
47670;BME280;33408;52.062;11.722;2023-07-28T00:31:59;99914.13;;;17.97;100.00
47670;BME280;33408;52.062;11.722;2023-07-28T00:34:27;99911.41;;;17.99;100.00
47670;BME280;33408;52.062;11.722;2023-07-28T00:36:54;99909.25;;;18.06;100.00
47670;BME280;33408;52.062;11.722;2023-07-28T00:39:20;99911.69;;;18.09;100.00
47670;BME280;33408;52.062;11.722;2023-07-28T00:41:47;99913.28;;;18.11;100.00
47670;BME280;33408;52.062;11.722;2023-07-28T00:44:13;99914.94;;;18.12;100.00
47670;BME280;33408;52.062;11.722;2023-07-28T00:46:42;99910.66;;;18.11;100.00
47670;BME280;33408;52.062;11.722;2023-07-28T00:49:08;99914.94;;;18.12;100.00
47670;BME280;33408;52.062;11.722;2023-07-28T00:51:37;99918.53;;;18.11;100.00
47670;BME280;33408;52.062;11.722;2023-07-28T00:54:04;99913.47;;;18.08;100.00
47670;BME280;33408;52.062;11.722;2023-07-28T00:56:31;99913.47;;;18.08;100.00
47670;BME280;33408;52.062;11.722;2023-07-28T00:58:58;99912.69;;;18.06;100.00
47670;BME280;33408;52.062;11.722;2023-07-28T01:01:24;99924.06;;;18.07;100.00
47670;BME280;33408;52.062;11.722;2023-07-28T01:03:51;99919.09;;;18.02;100.00
47670;BME280;33408;52.062;11.722;2023-07-28T01:06:24;99911.22;;;18.02;100.00
47670;BME280;33408;52.062;11.722;2023-07-28T01:08:57;99915.84;;;17.98;100.00
47670;BME280;33408;52.062;11.722;2023-07-28T01:11:25;99919.28;;;17.99;100.00
47670;BME280;33408;52.062;11.722;2023-07-28T01:13:52;99919.09;;;18.02;100.00
47670;BME280;33408;52.062;11.722;2023-07-28T01:16:18;99922.66;;;18.01;100.00
47670;BME280;33408;52.062;11.722;2023-07-28T01:18:45;99917.41;;;18.01;100.00
47670;BME280;33408;52.062;11.722;2023-07-28T01:21:17;99926.97;;;18.02;100.00
47670;BME280;33408;52.062;11.722;2023-07-28T01:23:52;99920.03;;;18.01;100.00
47670;BME280;33408;52.062;11.722;2023-07-28T01:26:30;99922.56;;;18.02;100.00
47670;BME280;33408;52.062;11.722;2023-07-28T01:28:56;99911.31;;;18.00;100.00
47670;BME280;33408;52.062;11.722;2023-07-28T01:31:23;99906.81;;;18.02;100.00
47670;BME280;33408;52.062;11.722;2023-07-28T01:33:50;99903.38;;;18.02;100.00
47670;BME280;33408;52.062;11.722;2023-07-28T01:36:17;99905.69;;;18.07;100.00
47670;BME280;33408;52.062;11.722;2023-07-28T01:38:43;99898.84;;;18.04;100.00
47670;BME280;33408;52.062;11.722;2023-07-28T01:41:10;99902.78;;;18.11;100.00
47670;BME280;33408;52.062;11.722;2023-07-28T01:43:38;99901.56;;;18.02;100.00
47670;BME280;33408;52.062;11.722;2023-07-28T01:46:04;99907.56;;;18.04;100.00
47670;BME280;33408;52.062;11.722;2023-07-28T01:48:31;99891.91;;;18.03;100.00
47670;BME280;33408;52.062;11.722;2023-07-28T01:50:57;99898.84;;;18.04;100.00
47670;BME280;33408;52.062;11.722;2023-07-28T01:53:24;99905.88;;;18.03;100.00
47670;BME280;33408;52.062;11.722;2023-07-28T01:55:50;99897.06;;;18.04;100.00
47670;BME280;33408;52.062;11.722;2023-07-28T01:58:17;99901.66;;;18.01;100.00
47670;BME280;33408;52.062;11.722;2023-07-28T02:00:45;99898.31;;;17.99;100.00
47670;BME280;33408;52.062;11.722;2023-07-28T02:03:12;99895.41;;;17.89;100.00
47670;BME280;33408;52.062;11.722;2023-07-28T02:05:38;99903.84;;;17.94;100.00
47670;BME280;33408;52.062;11.722;2023-07-28T02:08:05;99902.41;;;17.89;100.00
47670;BME280;33408;52.062;11.722;2023-07-28T02:10:31;99895.31;;;17.91;100.00
47670;BME280;33408;52.062;11.722;2023-07-28T02:12:58;99894.75;;;17.85;100.00
47670;BME280;33408;52.062;11.722;2023-07-28T02:15:24;99891.44;;;17.82;100.00
47670;BME280;33408;52.062;11.722;2023-07-28T02:17:52;99894.06;;;17.82;100.00
47670;BME280;33408;52.062;11.722;2023-07-28T02:20:19;99894.84;;;17.84;100.00
47670;BME280;33408;52.062;11.722;2023-07-28T02:22:46;99893.34;;;17.80;100.00
47670;BME280;33408;52.062;11.722;2023-07-28T02:25:12;99886.88;;;17.85;100.00
47670;BME280;33408;52.062;11.722;2023-07-28T02:27:39;99892.81;;;17.89;100.00
47670;BME280;33408;52.062;11.722;2023-07-28T02:30:06;99891.34;;;17.83;100.00
47670;BME280;33408;52.062;11.722;2023-07-28T02:32:33;99889.31;;;17.89;100.00
47670;BME280;33408;52.062;11.722;2023-07-28T02:35:01;99888.38;;;17.90;100.00
47670;BME280;33408;52.062;11.722;2023-07-28T02:37:28;99901.31;;;17.93;100.00
47670;BME280;33408;52.062;11.722;2023-07-28T02:39:54;99900.00;;;17.85;100.00
47670;BME280;33408;52.062;11.722;2023-07-28T02:42:21;99903.44;;;17.86;100.00
47670;BME280;33408;52.062;11.722;2023-07-28T02:44:49;99903.94;;;17.93;100.00
47670;BME280;33408;52.062;11.722;2023-07-28T02:47:15;99902.63;;;17.85;100.00
47670;BME280;33408;52.062;11.722;2023-07-28T02:49:42;99900.28;;;17.81;100.00
47670;BME280;33408;52.062;11.722;2023-07-28T02:52:11;99907.75;;;17.87;100.00
47670;BME280;33408;52.062;11.722;2023-07-28T02:54:37;99903.44;;;17.86;100.00
47670;BME280;33408;52.062;11.722;2023-07-28T02:57:04;99905.03;;;17.89;100.00
47670;BME280;33408;52.062;11.722;2023-07-28T02:59:31;99901.41;;;17.91;100.00
47670;BME280;33408;52.062;11.722;2023-07-28T03:01:58;99900.38;;;17.94;100.00
47670;BME280;33408;52.062;11.722;2023-07-28T03:04:24;99906.56;;;17.93;100.00
47670;BME280;33408;52.062;11.722;2023-07-28T03:06:51;99900.47;;;17.92;100.00
47670;BME280;33408;52.062;11.722;2023-07-28T03:09:19;99911.78;;;17.93;100.00
47670;BME280;33408;52.062;11.722;2023-07-28T03:11:46;99901.41;;;17.91;100.00
47670;BME280;33408;52.062;11.722;2023-07-28T03:14:12;99910.28;;;17.89;100.00
47670;BME280;33408;52.062;11.722;2023-07-28T03:16:39;99909.72;;;17.83;100.00
47670;BME280;33408;52.062;11.722;2023-07-28T03:19:06;99907.84;;;17.85;100.00
47670;BME280;33408;52.062;11.722;2023-07-28T03:21:33;99913.94;;;17.86;100.00
47670;BME280;33408;52.062;11.722;2023-07-28T03:23:59;99921.72;;;17.88;100.00
47670;BME280;33408;52.062;11.722;2023-07-28T03:26:27;99925.09;;;17.90;100.00
47670;BME280;33408;52.062;11.722;2023-07-28T03:28:54;99926.78;;;17.91;100.00
47670;BME280;33408;52.062;11.722;2023-07-28T03:31:20;99928.47;;;17.92;100.00
47670;BME280;33408;52.062;11.722;2023-07-28T03:33:47;99938.94;;;17.92;100.00
47670;BME280;33408;52.062;11.722;2023-07-28T03:36:13;99934.47;;;17.94;100.00
47670;BME280;33408;52.062;11.722;2023-07-28T03:38:40;99934.28;;;17.97;100.00
47670;BME280;33408;52.062;11.722;2023-07-28T03:41:07;99936.91;;;17.97;100.00
47670;BME280;33408;52.062;11.722;2023-07-28T03:43:35;99944.00;;;17.95;100.00
47670;BME280;33408;52.062;11.722;2023-07-28T03:46:02;99936.69;;;18.00;100.00
47670;BME280;33408;52.062;11.722;2023-07-28T03:48:29;99945.31;;;18.02;100.00
47670;BME280;33408;52.062;11.722;2023-07-28T03:50:55;99937.00;;;17.95;100.00
47670;BME280;33408;52.062;11.722;2023-07-28T03:53:22;99940.44;;;17.96;100.00
47670;BME280;33408;52.062;11.722;2023-07-28T03:55:49;99934.38;;;17.95;100.00
47670;BME280;33408;52.062;11.722;2023-07-28T03:58:15;99940.63;;;17.93;100.00
47670;BME280;33408;52.062;11.722;2023-07-28T04:00:43;99933.22;;;17.85;100.00
47670;BME280;33408;52.062;11.722;2023-07-28T04:03:10;99937.38;;;17.89;100.00
47670;BME280;33408;52.062;11.722;2023-07-28T04:05:36;99926.97;;;17.88;100.00
47670;BME280;33408;52.062;11.722;2023-07-28T04:08:04;99935.75;;;17.86;100.00
47670;BME280;33408;52.062;11.722;2023-07-28T04:10:30;99923.22;;;17.92;100.00
47670;BME280;33408;52.062;11.722;2023-07-28T04:12:57;99929.13;;;17.95;100.00
47670;BME280;33408;52.062;11.722;2023-07-28T04:15:23;99923.22;;;17.92;100.00
47670;BME280;33408;52.062;11.722;2023-07-28T04:17:51;99920.69;;;17.90;100.00
47670;BME280;33408;52.062;11.722;2023-07-28T04:20:18;99927.81;;;17.88;100.00
47670;BME280;33408;52.062;11.722;2023-07-28T04:22:44;99932.88;;;17.91;100.00
47670;BME280;33408;52.062;11.722;2023-07-28T04:25:11;99923.47;;;18.01;100.00
47670;BME280;33408;52.062;11.722;2023-07-28T04:27:38;99929.16;;;19.04;100.00
47670;BME280;33408;52.062;11.722;2023-07-28T04:30:05;99923.72;;;18.53;100.00
47670;BME280;33408;52.062;11.722;2023-07-28T04:32:32;99928.31;;;18.91;100.00
47670;BME280;33408;52.062;11.722;2023-07-28T04:35:00;99915.59;;;18.43;100.00
47670;BME280;33408;52.062;11.722;2023-07-28T04:37:27;99917.25;;;18.31;100.00
47670;BME280;33408;52.062;11.722;2023-07-28T04:39:53;99922.00;;;18.39;100.00
47670;BME280;33408;52.062;11.722;2023-07-28T04:42:20;99916.56;;;18.42;100.00
47670;BME280;33408;52.062;11.722;2023-07-28T04:44:46;99923.38;;;18.45;100.00
47670;BME280;33408;52.062;11.722;2023-07-28T04:47:13;99919.41;;;18.93;100.00
47670;BME280;33408;52.062;11.722;2023-07-28T04:49:39;99919.63;;;18.76;100.00
47670;BME280;33408;52.062;11.722;2023-07-28T04:52:08;99927.94;;;19.10;100.00
47670;BME280;33408;52.062;11.722;2023-07-28T04:54:34;99932.56;;;18.79;100.00
47670;BME280;33408;52.062;11.722;2023-07-28T04:57:01;99932.72;;;18.90;100.00
47670;BME280;33408;52.062;11.722;2023-07-28T04:59:28;99934.41;;;18.77;100.00
47670;BME280;33408;52.062;11.722;2023-07-28T05:01:54;99939.19;;;19.38;100.00
47670;BME280;33408;52.062;11.722;2023-07-28T05:04:21;99934.38;;;19.83;100.00
47670;BME280;33408;52.062;11.722;2023-07-28T05:06:48;99937.84;;;21.98;100.00
47670;BME280;33408;52.062;11.722;2023-07-28T05:09:16;99928.09;;;22.21;100.00
47670;BME280;33408;52.062;11.722;2023-07-28T05:11:43;99935.19;;;22.20;100.00
47670;BME280;33408;52.062;11.722;2023-07-28T05:14:09;99937.09;;;22.07;100.00
47670;BME280;33408;52.062;11.722;2023-07-28T05:16:36;99941.31;;;20.58;100.00
47670;BME280;33408;52.062;11.722;2023-07-28T05:19:04;99942.56;;;19.91;100.00
47670;BME280;33408;52.062;11.722;2023-07-28T05:21:31;99952.53;;;19.35;100.00
47670;BME280;33408;52.062;11.722;2023-07-28T05:23:58;99955.13;;;19.09;100.00
47670;BME280;33408;52.062;11.722;2023-07-28T05:26:26;99960.75;;;18.90;100.00
47670;BME280;33408;52.062;11.722;2023-07-28T05:28:53;99961.81;;;18.87;100.00
47670;BME280;33408;52.062;11.722;2023-07-28T05:31:19;99961.34;;;18.81;100.00
47670;BME280;33408;52.062;11.722;2023-07-28T05:33:46;99968.16;;;18.83;100.00
47670;BME280;33408;52.062;11.722;2023-07-28T05:36:12;99971.75;;;18.82;100.00
47670;BME280;33408;52.062;11.722;2023-07-28T05:38:39;99970.03;;;18.95;100.00
47670;BME280;33408;52.062;11.722;2023-07-28T05:41:05;99968.38;;;19.07;100.00
47670;BME280;33408;52.062;11.722;2023-07-28T05:43:34;99972.72;;;19.21;100.00
47670;BME280;33408;52.062;11.722;2023-07-28T05:46:00;99963.47;;;19.41;100.00
47670;BME280;33408;52.062;11.722;2023-07-28T05:48:27;99965.16;;;19.42;100.00
47670;BME280;33408;52.062;11.722;2023-07-28T05:50:54;99966.22;;;19.53;100.00
47670;BME280;33408;52.062;11.722;2023-07-28T05:53:21;99964.66;;;19.63;100.00
47670;BME280;33408;52.062;11.722;2023-07-28T05:55:47;99960.16;;;19.78;100.00
47670;BME280;33408;52.062;11.722;2023-07-28T05:58:14;99968.56;;;19.83;100.00
47670;BME280;33408;52.062;11.722;2023-07-28T06:00:42;99967.22;;;19.77;100.00
47670;BME280;33408;52.062;11.722;2023-07-28T06:03:10;99984.84;;;19.88;100.00
47670;BME280;33408;52.062;11.722;2023-07-28T06:05:38;99980.47;;;19.89;100.00
47670;BME280;33408;52.062;11.722;2023-07-28T06:08:05;99985.91;;;19.98;100.00
47670;BME280;33408;52.062;11.722;2023-07-28T06:10:32;99995.81;;;19.82;100.00
47670;BME280;33408;52.062;11.722;2023-07-28T06:12:58;100003.88;;;19.66;100.00
47670;BME280;33408;52.062;11.722;2023-07-28T06:15:25;100007.34;;;19.54;100.00
47670;BME280;33408;52.062;11.722;2023-07-28T06:17:53;100012.69;;;19.52;100.00
47670;BME280;33408;52.062;11.722;2023-07-28T06:20:20;99998.63;;;19.53;100.00
47670;BME280;33408;52.062;11.722;2023-07-28T06:22:46;100003.56;;;19.58;100.00
47670;BME280;33408;52.062;11.722;2023-07-28T06:25:13;100002.75;;;19.96;100.00
47670;BME280;33408;52.062;11.722;2023-07-28T06:27:39;100006.34;;;21.41;100.00
47670;BME280;33408;52.062;11.722;2023-07-28T06:30:07;99999.22;;;21.19;100.00
47670;BME280;33408;52.062;11.722;2023-07-28T06:32:34;100006.06;;;20.98;100.00
47670;BME280;33408;52.062;11.722;2023-07-28T06:35:02;100002.78;;;20.33;100.00
47670;BME280;33408;52.062;11.722;2023-07-28T06:37:29;100006.94;;;20.11;100.00
47670;BME280;33408;52.062;11.722;2023-07-28T06:39:55;100017.34;;;21.00;100.00
47670;BME280;33408;52.062;11.722;2023-07-28T06:42:22;100007.50;;;21.26;100.00
47670;BME280;33408;52.062;11.722;2023-07-28T06:44:49;100004.19;;;20.75;100.00
47670;BME280;33408;52.062;11.722;2023-07-28T06:47:16;100010.81;;;21.17;100.00
47670;BME280;33408;52.062;11.722;2023-07-28T06:49:43;100007.72;;;21.58;100.00
47670;BME280;33408;52.062;11.722;2023-07-28T06:52:11;100000.66;;;21.23;100.00
47670;BME280;33408;52.062;11.722;2023-07-28T06:54:37;99999.22;;;21.19;100.00
47670;BME280;33408;52.062;11.722;2023-07-28T06:57:04;100000.06;;;20.95;100.00
47670;BME280;33408;52.062;11.722;2023-07-28T06:59:31;100014.38;;;21.04;100.00
47670;BME280;33408;52.062;11.722;2023-07-28T07:01:58;100010.97;;;21.26;100.00
47670;BME280;33408;52.062;11.722;2023-07-28T07:04:25;100018.78;;;21.75;100.00
47670;BME280;33408;52.062;11.722;2023-07-28T07:06:51;100016.03;;;21.76;100.00
47670;BME280;33408;52.062;11.722;2023-07-28T07:09:19;100018.53;;;21.78;100.00
47670;BME280;33408;52.062;11.722;2023-07-28T07:11:46;100026.25;;;21.45;100.00
47670;BME280;33408;52.062;11.722;2023-07-28T07:14:12;100028.47;;;21.27;100.00
47670;BME280;33408;52.062;11.722;2023-07-28T07:16:40;100023.44;;;21.00;100.00
47670;BME280;33408;52.062;11.722;2023-07-28T07:19:06;100032.88;;;21.16;100.00
47670;BME280;33408;52.062;11.722;2023-07-28T07:21:34;100028.97;;;21.33;100.00
47670;BME280;33408;52.062;11.722;2023-07-28T07:24:01;100032.06;;;21.26;100.00
47670;BME280;33408;52.062;11.722;2023-07-28T07:26:30;100025.00;;;21.62;100.00
47670;BME280;33408;52.062;11.722;2023-07-28T07:28:57;100036.31;;;21.98;100.00
47670;BME280;33408;52.062;11.722;2023-07-28T07:31:24;100034.94;;;21.59;100.00
47670;BME280;33408;52.062;11.722;2023-07-28T07:33:50;100038.78;;;21.30;100.00
47670;BME280;33408;52.062;11.722;2023-07-28T07:36:18;100044.88;;;21.31;100.00
47670;BME280;33408;52.062;11.722;2023-07-28T07:38:45;100045.47;;;21.59;100.00
47670;BME280;33408;52.062;11.722;2023-07-28T07:41:12;100036.41;;;21.74;100.00
47670;BME280;33408;52.062;11.722;2023-07-28T07:43:42;100046.94;;;21.63;100.00
47670;BME280;33408;52.062;11.722;2023-07-28T07:46:09;100045.81;;;21.90;100.00
47670;BME280;33408;52.062;11.722;2023-07-28T07:48:35;100051.28;;;21.40;100.00
47670;BME280;33408;52.062;11.722;2023-07-28T07:51:02;100060.88;;;21.17;100.00
47670;BME280;33408;52.062;11.722;2023-07-28T07:53:29;100062.66;;;21.64;100.00
47670;BME280;33408;52.062;11.722;2023-07-28T07:55:55;100049.09;;;21.58;100.00
47670;BME280;33408;52.062;11.722;2023-07-28T07:58:22;100052.19;;;21.27;100.00
47670;BME280;33408;52.062;11.722;2023-07-28T08:00:50;100053.44;;;21.46;100.00
47670;BME280;33408;52.062;11.722;2023-07-28T08:03:17;100055.78;;;21.26;100.00
47670;BME280;33408;52.062;11.722;2023-07-28T08:05:43;100053.81;;;21.41;100.00
47670;BME280;33408;52.062;11.722;2023-07-28T08:08:10;100060.88;;;21.17;100.00
47670;BME280;33408;52.062;11.722;2023-07-28T08:10:38;100067.28;;;21.49;100.00
47670;BME280;33408;52.062;11.722;2023-07-28T08:13:05;100068.22;;;21.24;100.00
47670;BME280;33408;52.062;11.722;2023-07-28T08:15:32;100069.38;;;21.44;100.00
47670;BME280;33408;52.062;11.722;2023-07-28T08:18:00;100072.66;;;21.83;100.00
47670;BME280;33408;52.062;11.722;2023-07-28T08:20:26;100077.78;;;22.32;100.00
47670;BME280;33408;52.062;11.722;2023-07-28T08:22:53;100071.81;;;22.06;100.00
47670;BME280;33408;52.062;11.722;2023-07-28T08:25:21;100070.53;;;22.11;100.00
47670;BME280;33408;52.062;11.722;2023-07-28T08:27:48;100065.28;;;22.34;100.00
47670;BME280;33408;52.062;11.722;2023-07-28T08:30:14;100067.78;;;22.58;100.00
47670;BME280;33408;52.062;11.722;2023-07-28T08:32:41;100069.09;;;22.41;100.00
47670;BME280;33408;52.062;11.722;2023-07-28T08:35:09;100077.97;;;22.29;100.00
47670;BME280;33408;52.062;11.722;2023-07-28T08:37:36;100072.13;;;22.48;100.00
47670;BME280;33408;52.062;11.722;2023-07-28T08:40:03;100080.88;;;22.37;100.00
47670;BME280;33408;52.062;11.722;2023-07-28T08:42:31;100073.06;;;22.58;100.00
47670;BME280;33408;52.062;11.722;2023-07-28T08:45:02;100070.56;;;23.00;100.00
47670;BME280;33408;52.062;11.722;2023-07-28T08:47:30;100083.38;;;23.27;100.00
47670;BME280;33408;52.062;11.722;2023-07-28T08:49:57;100075.19;;;23.30;100.00
47670;BME280;33408;52.062;11.722;2023-07-28T08:52:25;100075.66;;;23.57;100.00
47670;BME280;33408;52.062;11.722;2023-07-28T08:54:51;100075.97;;;23.63;100.00
47670;BME280;33408;52.062;11.722;2023-07-28T08:57:18;100079.09;;;23.69;100.00
47670;BME280;33408;52.062;11.722;2023-07-28T08:59:45;100089.31;;;23.41;100.00
47670;BME280;33408;52.062;11.722;2023-07-28T09:02:14;100089.13;;;22.77;100.00
47670;BME280;33408;52.062;11.722;2023-07-28T09:04:41;100107.97;;;22.84;100.00
47670;BME280;33408;52.062;11.722;2023-07-28T09:07:08;100101.81;;;22.95;100.00
47670;BME280;33408;52.062;11.722;2023-07-28T09:09:36;100108.09;;;22.83;100.00
47670;BME280;33408;52.062;11.722;2023-07-28T09:12:03;100100.44;;;23.35;100.00
47670;BME280;33408;52.062;11.722;2023-07-28T09:14:30;100103.97;;;23.98;100.00
47670;BME280;33408;52.062;11.722;2023-07-28T09:17:05;100101.69;;;22.97;100.00
47670;BME280;33408;52.062;11.722;2023-07-28T09:19:32;100101.16;;;23.79;100.00
47670;BME280;33408;52.062;11.722;2023-07-28T09:22:01;100087.22;;;23.77;100.00
47670;BME280;33408;52.062;11.722;2023-07-28T09:24:31;100096.25;;;23.53;100.00
47670;BME280;33408;52.062;11.722;2023-07-28T09:27:00;100094.03;;;23.79;100.00
47670;BME280;33408;52.062;11.722;2023-07-28T09:29:27;100107.22;;;23.05;100.00
47670;BME280;33408;52.062;11.722;2023-07-28T09:32:03;100109.44;;;22.54;100.00
47670;BME280;33408;52.062;11.722;2023-07-28T09:34:30;100113.50;;;22.70;100.00
47670;BME280;33408;52.062;11.722;2023-07-28T09:36:58;100112.53;;;22.82;100.00
47670;BME280;33408;52.062;11.722;2023-07-28T09:39:26;100117.19;;;23.01;100.00
47670;BME280;33408;52.062;11.722;2023-07-28T09:41:53;100111.84;;;23.35;100.00
47670;BME280;33408;52.062;11.722;2023-07-28T09:44:24;100114.41;;;23.25;100.00
47670;BME280;33408;52.062;11.722;2023-07-28T09:46:51;100122.31;;;23.25;100.00
47670;BME280;33408;52.062;11.722;2023-07-28T09:49:22;100118.50;;;22.95;100.00
47670;BME280;33408;52.062;11.722;2023-07-28T09:51:53;100115.06;;;22.84;100.00
47670;BME280;33408;52.062;11.722;2023-07-28T09:54:24;100124.69;;;22.73;100.00
47670;BME280;33408;52.062;11.722;2023-07-28T09:56:53;100121.06;;;22.86;100.00
47670;BME280;33408;52.062;11.722;2023-07-28T09:59:27;100130.28;;;23.14;100.00
47670;BME280;33408;52.062;11.722;2023-07-28T10:01:55;100131.44;;;23.33;100.00
47670;BME280;33408;52.062;11.722;2023-07-28T10:04:22;100128.03;;;23.42;100.00
47670;BME280;33408;52.062;11.722;2023-07-28T10:06:50;100122.47;;;23.77;100.00
47670;BME280;33408;52.062;11.722;2023-07-28T10:09:21;100130.13;;;23.92;100.00
47670;BME280;33408;52.062;11.722;2023-07-28T10:11:48;100133.72;;;23.91;100.00
47670;BME280;33408;52.062;11.722;2023-07-28T10:14:26;100137.09;;;23.28;99.52
47670;BME280;33408;52.062;11.722;2023-07-28T10:16:53;100133.31;;;23.42;100.00
47670;BME280;33408;52.062;11.722;2023-07-28T10:19:20;100131.91;;;23.38;100.00
47670;BME280;33408;52.062;11.722;2023-07-28T10:21:47;100147.31;;;23.21;100.00
47670;BME280;33408;52.062;11.722;2023-07-28T10:24:14;100144.56;;;23.55;100.00
47670;BME280;33408;52.062;11.722;2023-07-28T10:26:42;100149.09;;;23.64;100.00
47670;BME280;33408;52.062;11.722;2023-07-28T10:29:13;100140.72;;;23.59;99.55
47670;BME280;33408;52.062;11.722;2023-07-28T10:31:51;100149.53;;;23.48;100.00
47670;BME280;33408;52.062;11.722;2023-07-28T10:34:17;100149.06;;;23.43;100.00
47670;BME280;33408;52.062;11.722;2023-07-28T10:36:44;100152.53;;;23.11;100.00
47670;BME280;33408;52.062;11.722;2023-07-28T10:39:15;100148.81;;;23.14;100.00
47670;BME280;33408;52.062;11.722;2023-07-28T10:42:01;100160.75;;;23.29;100.00
47670;BME280;33408;52.062;11.722;2023-07-28T10:44:28;100163.66;;;23.26;100.00
47670;BME280;33408;52.062;11.722;2023-07-28T10:46:57;100162.69;;;23.27;100.00
47670;BME280;33408;52.062;11.722;2023-07-28T10:49:24;100157.75;;;23.34;100.00
47670;BME280;33408;52.062;11.722;2023-07-28T10:51:51;100155.41;;;23.52;100.00
47670;BME280;33408;52.062;11.722;2023-07-28T10:54:17;100161.84;;;23.71;100.00
47670;BME280;33408;52.062;11.722;2023-07-28T10:56:45;100159.75;;;23.74;100.00
47670;BME280;33408;52.062;11.722;2023-07-28T10:59:12;100152.16;;;23.81;100.00
47670;BME280;33408;52.062;11.722;2023-07-28T11:01:39;100159.94;;;23.94;100.00
47670;BME280;33408;52.062;11.722;2023-07-28T11:04:10;100150.50;;;23.80;99.72
47670;BME280;33408;52.062;11.722;2023-07-28T11:06:37;100152.38;;;23.89;99.04
47670;BME280;33408;52.062;11.722;2023-07-28T11:09:05;100156.97;;;24.08;93.55
47670;BME280;33408;52.062;11.722;2023-07-28T11:11:33;100145.34;;;24.20;90.64
47670;BME280;33408;52.062;11.722;2023-07-28T11:14:01;100147.81;;;24.43;90.43
47670;BME280;33408;52.062;11.722;2023-07-28T11:16:28;100162.88;;;24.43;90.70
47670;BME280;33408;52.062;11.722;2023-07-28T11:18:55;100141.34;;;24.88;85.87
47670;BME280;33408;52.062;11.722;2023-07-28T11:21:24;100142.38;;;25.26;87.11
47670;BME280;33408;52.062;11.722;2023-07-28T11:23:51;100152.22;;;24.94;83.73
47670;BME280;33408;52.062;11.722;2023-07-28T11:26:19;100132.72;;;25.05;84.80
47670;BME280;33408;52.062;11.722;2023-07-28T11:28:46;100136.53;;;25.32;86.13
47670;BME280;33408;52.062;11.722;2023-07-28T11:31:13;100137.22;;;26.12;81.99
47670;BME280;33408;52.062;11.722;2023-07-28T11:33:39;100139.88;;;26.12;81.59
47670;BME280;33408;52.062;11.722;2023-07-28T11:36:06;100135.81;;;25.20;82.65
47670;BME280;33408;52.062;11.722;2023-07-28T11:38:35;100136.75;;;25.00;86.50
47670;BME280;33408;52.062;11.722;2023-07-28T11:41:03;100139.13;;;25.12;85.93
47670;BME280;33408;52.062;11.722;2023-07-28T11:43:29;100142.25;;;24.67;84.69
47670;BME280;33408;52.062;11.722;2023-07-28T11:45:56;100137.91;;;24.66;85.82
47670;BME280;33408;52.062;11.722;2023-07-28T11:48:23;100137.53;;;25.41;83.20
47670;BME280;33408;52.062;11.722;2023-07-28T11:50:49;100138.78;;;25.37;83.02
47670;BME280;33408;52.062;11.722;2023-07-28T11:53:19;100143.50;;;25.92;79.62
47670;BME280;33408;52.062;11.722;2023-07-28T11:55:47;100152.69;;;26.27;76.99
47670;BME280;33408;52.062;11.722;2023-07-28T11:58:14;100150.09;;;25.97;77.14
47670;BME280;33408;52.062;11.722;2023-07-28T12:00:40;100150.38;;;25.84;78.70
47670;BME280;33408;52.062;11.722;2023-07-28T12:03:10;100147.84;;;25.83;76.15
47670;BME280;33408;52.062;11.722;2023-07-28T12:05:38;100146.31;;;25.80;77.20
47670;BME280;33408;52.062;11.722;2023-07-28T12:08:05;100142.78;;;26.19;78.69
47670;BME280;33408;52.062;11.722;2023-07-28T12:10:33;100151.84;;;26.64;75.52
47670;BME280;33408;52.062;11.722;2023-07-28T12:13:05;100142.97;;;26.45;73.55
47670;BME280;33408;52.062;11.722;2023-07-28T12:15:34;100137.59;;;26.17;71.77
47670;BME280;33408;52.062;11.722;2023-07-28T12:18:10;100147.28;;;25.60;74.83
47670;BME280;33408;52.062;11.722;2023-07-28T12:20:39;100135.88;;;26.36;70.00
47670;BME280;33408;52.062;11.722;2023-07-28T12:23:07;100141.13;;;27.11;68.55
47670;BME280;33408;52.062;11.722;2023-07-28T12:25:36;100151.25;;;26.42;68.38
47670;BME280;33408;52.062;11.722;2023-07-28T12:28:04;100153.72;;;25.77;71.25
47670;BME280;33408;52.062;11.722;2023-07-28T12:30:31;100145.50;;;25.41;72.97
47670;BME280;33408;52.062;11.722;2023-07-28T12:32:58;100162.09;;;25.33;74.59
47670;BME280;33408;52.062;11.722;2023-07-28T12:35:25;100168.69;;;26.07;74.92